TAF Text Data
IDs:
Format:
Raw Decoded Include METAR

Data at: 1419 UTC 10 Jul 2020

KPDK 101127Z 1012/1112 20003KT P6SM SKC
  FM101800 27006KT P6SM SCT050
  FM110000 29007KT P6SM FEW050